createdAt,value
2022-08-10T02:32:38.754Z,97952.63
2022-08-10T02:35:54.053Z,97947.97
2022-08-10T02:39:00.997Z,97952.41
2022-08-10T02:45:12.621Z,97947.34
2022-08-10T02:45:52.790Z,97946.56
2022-08-10T02:49:03.818Z,97944.94
2022-08-10T02:52:11.573Z,97942.63
2022-08-10T02:55:33.547Z,97953.28
2022-08-10T02:58:46.969Z,97959.25
2022-08-10T03:01:50.309Z,97947.41
2022-08-10T03:04:58.087Z,97944.72
2022-08-10T03:08:07.010Z,97953.69
2022-08-10T03:11:13.609Z,97946.81
2022-08-10T03:14:16.932Z,97940.88
2022-08-10T03:17:20.249Z,97941.34
2022-08-10T03:20:37.514Z,97939.72
2022-08-10T03:23:43.250Z,97949.53
2022-08-10T03:26:45.065Z,97946.97
2022-08-10T03:30:29.849Z,97945.09
2022-08-10T03:33:11.024Z,97951.22
2022-08-10T03:36:40.212Z,97948.34
2022-08-10T03:39:34.314Z,97948.94
2022-08-10T03:42:38.349Z,97950.38
2022-08-10T03:45:54.937Z,97946.78
2022-08-10T03:49:02.080Z,97954.31
2022-08-10T03:52:06.268Z,97955.16
2022-08-10T03:55:08.260Z,97957.81
2022-08-10T03:58:10.702Z,97948.72
2022-08-10T04:01:14.422Z,97958.22
2022-08-10T04:04:20.818Z,97967.38
2022-08-10T04:07:25.186Z,97946.66
2022-08-10T04:10:27.146Z,97952.16
2022-08-10T04:13:30.453Z,97954.25
2022-08-10T04:16:32.000Z,97957.63
2022-08-10T04:19:45.809Z,97961.56
2022-08-10T04:22:52.225Z,97965.84
2022-08-10T04:25:54.964Z,97959.81
2022-08-10T04:28:56.486Z,97962.03
2022-08-10T04:31:59.357Z,97964.94
2022-08-10T04:35:03.606Z,97963.41
2022-08-10T04:38:06.788Z,97968.47
2022-08-10T04:41:08.987Z,97960.66
2022-08-10T04:44:10.573Z,97972.22
2022-08-10T04:47:14.019Z,97970.69
2022-08-10T04:50:18.381Z,97972.25
2022-08-10T04:53:25.986Z,97982.84
2022-08-10T04:56:31.859Z,97974.63
2022-08-10T04:59:33.705Z,97975.63
2022-08-10T05:02:35.502Z,97976.03
2022-08-10T05:05:37.131Z,97970.78
2022-08-10T05:08:38.587Z,97975.75
2022-08-10T05:11:42.439Z,97975.97
2022-08-10T05:14:43.947Z,97973.31
2022-08-10T05:18:08.108Z,97973.31
2022-08-10T05:21:07.972Z,97983.63
2022-08-10T05:24:09.458Z,97986.59
2022-08-10T05:27:10.938Z,97986.25
2022-08-10T05:30:18.731Z,97984.59
2022-08-10T05:33:20.522Z,97991.72
2022-08-10T05:36:22.126Z,97982.63
2022-08-10T05:39:28.694Z,97986.03
2022-08-10T05:42:34.187Z,97975.91
2022-08-10T05:46:16.659Z,97978.47
2022-08-10T05:49:00.861Z,97979.34
2022-08-10T05:52:03.767Z,97982.03
2022-08-10T05:55:06.018Z,97981.22
2022-08-10T05:58:07.603Z,97982.06
2022-08-10T06:01:13.610Z,97981.03
2022-08-10T06:04:26.599Z,97981.53
2022-08-10T06:07:30.465Z,97982.72
2022-08-10T06:10:35.270Z,97975.47
2022-08-10T06:14:13.186Z,97980.19
2022-08-10T06:17:18.411Z,97986.56
2022-08-10T06:20:20.715Z,97984.50
2022-08-10T06:23:23.334Z,97986.34
2022-08-10T06:26:24.854Z,97981.09
2022-08-10T06:29:29.695Z,97979.25
2022-08-10T06:32:31.537Z,97988.69
2022-08-10T06:35:34.658Z,97981.91
2022-08-10T06:38:39.346Z,97988.19
2022-08-10T06:42:15.458Z,97987.16
2022-08-10T06:45:12.531Z,97978.16
2022-08-10T06:48:20.528Z,97991.81
2022-08-10T06:51:27.581Z,97982.81
2022-08-10T06:54:32.136Z,97977.03
2022-08-10T06:57:37.292Z,97976.13
2022-08-10T07:00:43.000Z,97976.75
2022-08-10T07:04:10.093Z,97982.34
2022-08-10T07:07:18.477Z,97979.66
2022-08-10T07:10:22.223Z,97976.41
2022-08-10T07:14:16.884Z,97969.56
2022-08-10T07:16:47.971Z,97979.13
2022-08-10T07:19:52.409Z,97982.59
2022-08-10T07:23:01.140Z,97975.69
2022-08-10T07:26:19.134Z,97968.78
2022-08-10T07:29:53.378Z,97983.38
2022-08-10T07:32:51.563Z,97962.38
2022-08-10T07:35:54.757Z,97972.41
2022-08-10T07:38:57.886Z,97969.72
2022-08-10T07:42:02.026Z,97972.50
2022-08-10T07:45:05.023Z,97981.75
2022-08-10T07:48:32.686Z,97967.16
2022-08-10T07:51:35.683Z,97973.50
2022-08-10T07:54:42.321Z,97972.00
2022-08-10T07:57:48.388Z,97972.56
2022-08-10T08:00:52.125Z,97966.16
2022-08-10T08:04:05.916Z,97968.22
2022-08-10T08:07:12.804Z,97968.31
2022-08-10T08:10:17.721Z,97966.31
2022-08-10T08:13:22.350Z,97972.97
2022-08-10T08:16:24.394Z,97963.53
2022-08-10T08:19:37.354Z,97970.78
2022-08-10T08:24:09.792Z,97966.59
2022-08-10T08:26:07.530Z,97973.50
2022-08-10T08:29:12.330Z,97972.25
2022-08-10T08:32:18.750Z,97978.00
2022-08-10T08:35:22.468Z,97979.97
2022-08-10T08:38:32.592Z,97974.44
2022-08-10T08:41:48.178Z,97973.09
2022-08-10T08:45:08.079Z,97974.78
2022-08-10T08:48:45.507Z,97968.69
2022-08-10T08:52:18.605Z,97960.97
2022-08-10T08:56:04.156Z,97961.28
2022-08-10T08:59:22.777Z,97969.69
2022-08-10T09:03:06.057Z,97971.00
2022-08-10T09:06:40.474Z,97968.09
2022-08-10T09:10:01.489Z,97961.44
2022-08-10T09:13:44.138Z,97963.72
2022-08-10T09:16:57.677Z,97965.63
2022-08-10T09:20:04.021Z,97959.94
2022-08-10T09:24:05.155Z,97969.69
2022-08-10T09:26:54.780Z,97966.66
2022-08-10T09:30:06.393Z,97956.91
2022-08-10T09:36:29.966Z,97956.50
2022-08-10T09:37:07.053Z,97953.34
2022-08-10T09:41:01.302Z,97946.66
2022-08-10T09:44:00.350Z,97945.84
2022-08-10T09:48:01.003Z,97944.78
2022-08-10T09:51:43.798Z,97948.78
2022-08-10T09:55:00.013Z,97932.41
2022-08-10T09:58:40.411Z,97939.75
2022-08-10T10:02:03.306Z,97936.81
2022-08-10T10:05:29.467Z,97942.28
2022-08-10T10:08:45.958Z,97936.44
2022-08-10T10:12:11.947Z,97932.59
2022-08-10T10:15:40.646Z,97924.22
2022-08-10T10:18:49.449Z,97931.34
2022-08-10T10:22:16.621Z,97937.00
2022-08-10T10:25:49.708Z,97938.88
2022-08-10T10:29:58.502Z,97930.94
2022-08-10T10:33:25.284Z,97924.97
2022-08-10T10:36:28.798Z,97917.81
2022-08-10T10:39:32.356Z,97922.63
2022-08-10T10:43:31.877Z,97921.41
2022-08-10T10:47:01.469Z,97924.47
2022-08-10T10:50:11.863Z,97917.22
2022-08-10T10:53:25.671Z,97913.22
2022-08-10T10:56:50.564Z,97894.09
2022-08-10T11:00:03.799Z,97901.31
2022-08-10T11:03:27.013Z,97905.44
2022-08-10T11:06:40.980Z,97904.09
2022-08-10T11:10:03.337Z,97887.34
2022-08-10T11:14:24.950Z,97890.75
2022-08-10T11:17:27.046Z,97900.72
2022-08-10T11:20:51.892Z,97897.50
2022-08-10T11:24:47.342Z,97896.38
2022-08-10T11:27:59.434Z,97890.53
2022-08-10T11:31:16.271Z,97905.34
2022-08-10T11:34:47.546Z,97888.00
2022-08-10T11:38:31.041Z,97886.25
2022-08-10T11:42:11.933Z,97885.97
2022-08-10T11:45:34.303Z,97886.78
2022-08-10T11:49:04.087Z,97876.44
2022-08-10T11:52:08.788Z,97872.75
2022-08-10T11:55:31.942Z,97877.44
2022-08-10T11:58:58.691Z,97874.53
2022-08-10T12:02:03.111Z,97887.09
2022-08-10T12:05:11.062Z,97881.34
2022-08-10T12:10:04.796Z,97877.91
2022-08-10T12:11:39.839Z,97881.88
2022-08-10T12:14:53.690Z,97876.84
2022-08-10T12:18:01.722Z,97869.72
2022-08-10T12:21:21.462Z,97865.81
2022-08-10T12:24:48.782Z,97860.28
2022-08-10T12:27:56.361Z,97860.66
2022-08-10T12:30:59.989Z,97865.88
2022-08-10T12:34:22.981Z,97855.03
2022-08-10T12:37:33.026Z,97850.44
2022-08-10T12:40:44.295Z,97859.16
2022-08-10T12:44:04.494Z,97866.06
2022-08-10T12:47:27.614Z,97864.63
2022-08-10T12:50:52.251Z,97857.63
2022-08-10T12:54:14.470Z,97855.34
2022-08-10T12:57:19.117Z,97846.84
2022-08-10T13:00:29.036Z,97855.88
2022-08-10T13:04:23.143Z,97844.31
2022-08-10T13:06:53.964Z,97841.25
2022-08-10T13:10:01.982Z,97847.75
2022-08-10T13:13:04.174Z,97838.16
2022-08-10T13:16:06.167Z,97824.25
2022-08-10T13:19:09.178Z,97824.69
2022-08-10T13:22:12.722Z,97820.53
2022-08-10T13:25:20.285Z,97823.25
2022-08-10T13:28:39.812Z,97820.75
2022-08-10T13:32:09.126Z,97808.00
2022-08-10T13:35:12.340Z,97816.25
2022-08-10T13:38:21.642Z,97807.66
2022-08-10T13:41:32.278Z,97807.47
2022-08-10T13:44:41.912Z,97808.25
2022-08-10T13:47:49.380Z,97797.31
2022-08-10T13:50:56.409Z,97791.13
2022-08-10T13:54:01.146Z,97786.44
2022-08-10T13:57:04.571Z,97788.94
2022-08-10T14:00:33.762Z,97784.25
2022-08-10T14:03:37.411Z,97783.16
2022-08-10T14:06:41.498Z,97783.34
2022-08-10T14:09:47.381Z,97783.09
2022-08-10T14:12:50.781Z,97778.16
2022-08-10T14:15:53.672Z,97772.31
2022-08-10T14:18:59.224Z,97765.75
2022-08-10T14:22:01.525Z,97766.81
2022-08-10T14:25:08.771Z,97775.41
2022-08-10T14:28:11.427Z,97759.44
2022-08-10T14:31:21.110Z,97766.94
2022-08-10T14:36:05.018Z,97752.94
2022-08-10T14:38:07.813Z,97765.63
2022-08-10T14:42:04.500Z,97766.47
2022-08-10T14:44:55.381Z,97760.72
2022-08-10T14:48:05.434Z,97756.97
2022-08-10T14:51:12.695Z,97748.69
2022-08-10T14:54:19.893Z,97748.06
2022-08-10T14:57:23.981Z,97751.44
2022-08-10T15:00:46.067Z,97742.13
2022-08-10T15:04:01.851Z,97745.41
2022-08-10T15:07:17.469Z,97738.03
2022-08-10T15:10:24.067Z,97744.34
2022-08-10T15:13:34.612Z,97733.31
2022-08-10T15:16:37.492Z,97737.00
2022-08-10T15:20:02.187Z,97726.75
2022-08-10T15:23:30.820Z,97724.69
2022-08-10T15:26:32.859Z,97714.56
2022-08-10T15:29:57.212Z,97711.59
2022-08-10T15:34:02.074Z,97710.50
2022-08-10T15:37:47.127Z,97714.31
2022-08-10T15:40:31.215Z,97716.53
2022-08-10T15:43:44.651Z,97723.50
2022-08-10T15:46:52.936Z,97725.19
2022-08-10T15:50:19.760Z,97724.34
2022-08-10T15:53:49.243Z,97719.91
2022-08-10T15:56:56.583Z,97720.19
2022-08-10T16:00:21.921Z,97713.06
2022-08-10T16:03:30.480Z,97711.38
2022-08-10T16:06:41.163Z,97700.69
2022-08-10T16:10:11.013Z,97703.53
2022-08-10T16:13:59.156Z,97705.25
2022-08-10T16:16:38.476Z,97696.63
2022-08-10T16:19:56.750Z,97702.84
2022-08-10T16:23:02.435Z,97693.47
2022-08-10T16:26:14.556Z,97694.78
2022-08-10T16:29:19.671Z,97700.63
2022-08-10T16:32:23.014Z,97693.28
2022-08-10T16:35:24.674Z,97692.66
2022-08-10T16:38:26.942Z,97681.22
2022-08-10T16:42:02.129Z,97688.72
2022-08-10T16:44:57.955Z,97683.72
2022-08-10T16:48:01.614Z,97680.16
2022-08-10T16:51:04.685Z,97674.97
2022-08-10T16:54:07.721Z,97672.84
2022-08-10T16:57:11.125Z,97672.50
2022-08-10T17:00:13.726Z,97670.81
2022-08-10T17:03:22.548Z,97676.16
2022-08-10T17:06:51.385Z,97680.13
2022-08-10T17:10:07.557Z,97674.81
2022-08-10T17:13:11.509Z,97676.66
2022-08-10T17:16:16.855Z,97673.28
2022-08-10T17:19:22.635Z,97677.09
2022-08-10T17:22:30.587Z,97674.66
2022-08-10T17:25:46.206Z,97670.53
2022-08-10T17:28:55.790Z,97669.56
2022-08-10T17:32:00.711Z,97678.84
2022-08-10T17:35:07.451Z,97674.97
2022-08-10T17:38:28.961Z,97670.34
2022-08-10T17:41:33.772Z,97673.22
2022-08-10T17:44:45.554Z,97675.75
2022-08-10T17:47:52.283Z,97673.94
2022-08-10T17:50:54.670Z,97677.28
2022-08-10T17:54:04.520Z,97674.97
2022-08-10T17:57:13.689Z,97679.78
2022-08-10T18:00:15.816Z,97677.19
2022-08-10T18:03:25.652Z,97676.81
2022-08-10T18:06:28.791Z,97675.44
2022-08-10T18:09:54.810Z,97679.59
2022-08-10T18:12:57.626Z,97679.00
2022-08-10T18:15:59.293Z,97689.06
2022-08-10T18:19:07.836Z,97687.44
2022-08-10T18:22:11.612Z,97690.00
2022-08-10T18:25:27.334Z,97691.25
2022-08-10T18:28:30.893Z,97690.28
2022-08-10T18:31:34.047Z,97695.56
2022-08-10T18:34:37.506Z,97686.16
2022-08-10T18:37:41.329Z,97688.69
2022-08-10T18:40:51.537Z,97696.63
2022-08-10T18:44:06.607Z,97705.66
2022-08-10T18:47:17.768Z,97702.16
2022-08-10T18:50:24.904Z,97710.31
2022-08-10T18:53:48.184Z,97715.75
2022-08-10T18:56:58.011Z,97711.97
2022-08-10T19:00:17.726Z,97718.47
2022-08-10T19:03:35.858Z,97719.94
2022-08-10T19:06:58.902Z,97725.16
2022-08-10T19:10:22.321Z,97727.66
2022-08-10T19:13:26.907Z,97740.25
2022-08-10T19:16:48.771Z,97733.53
2022-08-10T19:20:21.426Z,97730.09
2022-08-10T19:23:28.820Z,97736.38
2022-08-10T19:26:43.834Z,97739.00
2022-08-10T19:30:09.895Z,97745.50
2022-08-10T19:33:47.720Z,97743.38
2022-08-10T19:37:16.769Z,97749.91
2022-08-10T19:40:46.501Z,97750.25
2022-08-10T19:44:12.633Z,97741.69
2022-08-10T19:47:25.255Z,97743.25
2022-08-10T19:50:40.042Z,97739.03
2022-08-10T19:53:41.490Z,97743.00
2022-08-10T19:57:03.485Z,97749.16
2022-08-10T20:00:18.710Z,97755.25
2022-08-10T20:03:29.356Z,97752.22
2022-08-10T20:06:45.796Z,97756.69
2022-08-10T20:10:00.838Z,97746.00
2022-08-10T20:13:25.542Z,97755.38
2022-08-10T20:16:30.553Z,97749.56
2022-08-10T20:20:02.019Z,97755.78
2022-08-10T20:23:20.977Z,97755.06
2022-08-10T20:26:32.173Z,97745.94
2022-08-10T20:29:57.401Z,97756.69
2022-08-10T20:33:09.782Z,97755.06
2022-08-10T20:36:26.354Z,97751.66
2022-08-10T20:39:30.909Z,97747.22
2022-08-10T20:42:43.376Z,97759.84
2022-08-10T20:46:07.886Z,97746.63
2022-08-10T20:49:24.259Z,97751.34
2022-08-10T20:52:27.654Z,97758.78
2022-08-10T20:55:47.860Z,97760.94
2022-08-10T20:59:09.347Z,97752.03
2022-08-10T21:02:30.184Z,97758.31
2022-08-10T21:05:57.026Z,97754.00
2022-08-10T21:09:17.294Z,97749.81
2022-08-10T21:12:34.575Z,97751.56
2022-08-10T21:15:57.562Z,97739.97
2022-08-10T21:19:05.198Z,97741.22
2022-08-10T21:22:17.446Z,97745.31
2022-08-10T21:25:29.676Z,97748.97
2022-08-10T21:28:53.071Z,97742.31
2022-08-10T21:32:03.962Z,97745.75
2022-08-10T21:35:08.897Z,97744.00
2022-08-10T21:38:40.083Z,97743.28
2022-08-10T21:42:16.840Z,97731.69
2022-08-10T21:46:01.870Z,97741.72
2022-08-10T21:49:37.286Z,97746.34
2022-08-10T21:53:08.705Z,97748.59
2022-08-10T21:56:57.285Z,97747.88
2022-08-10T22:00:23.100Z,97741.59
2022-08-10T22:03:53.885Z,97740.56
2022-08-10T22:07:20.155Z,97746.66
2022-08-10T22:10:44.544Z,97751.78
2022-08-10T22:14:06.410Z,97742.00
2022-08-10T22:18:03.835Z,97743.44
2022-08-10T22:21:29.710Z,97740.44
2022-08-10T22:25:45.437Z,97731.78
2022-08-10T22:29:16.731Z,97736.38
2022-08-10T22:33:00.607Z,97728.25
2022-08-10T22:36:37.841Z,97739.69
2022-08-10T22:40:17.187Z,97737.47
2022-08-10T22:43:45.835Z,97735.63
2022-08-10T22:47:08.272Z,97735.84
2022-08-10T22:50:11.844Z,97757.75
2022-08-10T22:53:19.371Z,97755.63
2022-08-10T22:56:41.863Z,97748.34
2022-08-10T22:59:43.428Z,97756.38
2022-08-10T23:02:56.223Z,97749.13
2022-08-10T23:06:06.256Z,97757.22
2022-08-10T23:09:12.455Z,97754.88
2022-08-10T23:12:18.114Z,97752.13
2022-08-10T23:15:53.932Z,97751.84
2022-08-10T23:19:10.601Z,97757.06
2022-08-10T23:22:14.940Z,97761.78
2022-08-10T23:25:20.562Z,97752.03
2022-08-10T23:28:39.282Z,97754.81
2022-08-10T23:31:59.237Z,97755.66
2022-08-10T23:36:30.254Z,97749.66
2022-08-10T23:38:35.671Z,97757.75
2022-08-10T23:41:38.930Z,97747.97
2022-08-10T23:44:47.857Z,97747.41
2022-08-10T23:47:53.519Z,97743.16
2022-08-10T23:51:00.301Z,97747.72
2022-08-10T23:54:08.523Z,97740.97
2022-08-10T23:57:16.159Z,97740.16
